sensor_id;sensor_type;location;lat;lon;timestamp;pressure;altitude;pressure_sealevel;temperature;humidity
14902;BME280;7542;49.078;9.194;2022-10-22T00:00:09;98344.56;;;20.09;57.51
14902;BME280;7542;49.078;9.194;2022-10-22T00:01:12;98343.75;;;20.09;57.42
14902;BME280;7542;49.078;9.194;2022-10-22T00:02:13;98341.09;;;20.09;57.13
14902;BME280;7542;49.078;9.194;2022-10-22T00:03:21;98342.72;;;20.10;56.96
14902;BME280;7542;49.078;9.194;2022-10-22T00:04:22;98344.56;;;20.09;56.89
14902;BME280;7542;49.078;9.194;2022-10-22T00:05:24;98347.44;;;20.08;57.50
14902;BME280;7542;49.078;9.194;2022-10-22T00:06:26;98343.97;;;20.07;57.40
14902;BME280;7542;49.078;9.194;2022-10-22T00:07:28;98345.84;;;20.07;56.83
14902;BME280;7542;49.078;9.194;2022-10-22T00:08:30;98350.34;;;20.06;57.02
14902;BME280;7542;49.078;9.194;2022-10-22T00:09:32;98352.19;;;20.06;56.89
14902;BME280;7542;49.078;9.194;2022-10-22T00:10:36;98349.53;;;20.06;56.97
14902;BME280;7542;49.078;9.194;2022-10-22T00:11:38;98342.59;;;20.05;56.28
14902;BME280;7542;49.078;9.194;2022-10-22T00:12:40;98359.13;;;20.07;56.35
14902;BME280;7542;49.078;9.194;2022-10-22T00:13:43;98350.34;;;20.06;56.33
14902;BME280;7542;49.078;9.194;2022-10-22T00:14:45;98352.78;;;20.08;56.10
14902;BME280;7542;49.078;9.194;2022-10-22T00:15:47;98354.63;;;20.07;56.73
14902;BME280;7542;49.078;9.194;2022-10-22T00:16:49;98348.50;;;20.07;56.31
14902;BME280;7542;49.078;9.194;2022-10-22T00:17:51;98348.50;;;20.07;56.15
14902;BME280;7542;49.078;9.194;2022-10-22T00:18:53;98352.78;;;20.08;55.88
14902;BME280;7542;49.078;9.194;2022-10-22T00:19:55;98350.94;;;20.08;56.31
14902;BME280;7542;49.078;9.194;2022-10-22T00:20:57;98342.97;;;20.08;56.16
14902;BME280;7542;49.078;9.194;2022-10-22T00:21:59;98343.97;;;20.07;55.88
14902;BME280;7542;49.078;9.194;2022-10-22T00:23:01;98339.69;;;20.06;55.80
14902;BME280;7542;49.078;9.194;2022-10-22T00:24:03;98336.00;;;20.07;55.79
14902;BME280;7542;49.078;9.194;2022-10-22T00:25:05;98337.84;;;20.07;55.95
14902;BME280;7542;49.078;9.194;2022-10-22T00:26:07;98327.44;;;20.05;55.93
14902;BME280;7542;49.078;9.194;2022-10-22T00:27:11;98333.56;;;20.06;55.96
14902;BME280;7542;49.078;9.194;2022-10-22T00:28:13;98339.94;;;20.05;55.62
14902;BME280;7542;49.078;9.194;2022-10-22T00:29:15;98329.78;;;20.02;55.59
14902;BME280;7542;49.078;9.194;2022-10-22T00:30:20;98328.72;;;20.03;55.51
14902;BME280;7542;49.078;9.194;2022-10-22T00:31:22;98328.41;;;19.99;55.44
14902;BME280;7542;49.078;9.194;2022-10-22T00:32:24;98321.91;;;19.95;55.25
14902;BME280;7542;49.078;9.194;2022-10-22T00:33:27;98331.53;;;19.96;55.31
14902;BME280;7542;49.078;9.194;2022-10-22T00:34:29;98334.41;;;19.94;55.72
14902;BME280;7542;49.078;9.194;2022-10-22T00:35:31;98339.19;;;19.92;55.83
14902;BME280;7542;49.078;9.194;2022-10-22T00:36:33;98355.13;;;19.92;55.68
14902;BME280;7542;49.078;9.194;2022-10-22T00:37:35;98357.00;;;19.92;55.84
14902;BME280;7542;49.078;9.194;2022-10-22T00:38:37;98359.91;;;19.90;55.95
14902;BME280;7542;49.078;9.194;2022-10-22T00:39:39;98371.34;;;19.91;56.36
14902;BME280;7542;49.078;9.194;2022-10-22T00:40:41;98376.91;;;19.89;56.20
14902;BME280;7542;49.078;9.194;2022-10-22T00:41:46;98380.38;;;19.90;56.24
14902;BME280;7542;49.078;9.194;2022-10-22T00:42:48;98385.94;;;19.88;56.98
14902;BME280;7542;49.078;9.194;2022-10-22T00:43:55;98391.25;;;19.88;57.04
14902;BME280;7542;49.078;9.194;2022-10-22T00:46:11;98394.16;;;19.87;56.53
14902;BME280;7542;49.078;9.194;2022-10-22T00:47:14;98391.69;;;19.85;56.61
14902;BME280;7542;49.078;9.194;2022-10-22T00:48:30;98399.69;;;19.85;56.64
14902;BME280;7542;49.078;9.194;2022-10-22T00:49:33;98387.44;;;19.84;56.98
14902;BME280;7542;49.078;9.194;2022-10-22T00:51:01;98383.72;;;19.85;56.53
14902;BME280;7542;49.078;9.194;2022-10-22T00:52:04;98381.53;;;19.82;57.00
14902;BME280;7542;49.078;9.194;2022-10-22T00:53:18;98373.56;;;19.82;56.95
14902;BME280;7542;49.078;9.194;2022-10-22T00:54:21;98373.78;;;19.81;56.69
14902;BME280;7542;49.078;9.194;2022-10-22T00:55:25;98368.47;;;19.81;56.48
14902;BME280;7542;49.078;9.194;2022-10-22T00:56:28;98359.13;;;19.78;56.54
14902;BME280;7542;49.078;9.194;2022-10-22T00:57:31;98366.06;;;19.79;57.17
14902;BME280;7542;49.078;9.194;2022-10-22T00:58:38;98358.06;;;19.79;56.71
14902;BME280;7542;49.078;9.194;2022-10-22T00:59:42;98354.84;;;19.77;56.64
14902;BME280;7542;49.078;9.194;2022-10-22T01:00:44;98354.84;;;19.77;57.16
14902;BME280;7542;49.078;9.194;2022-10-22T01:01:45;98347.91;;;19.76;57.06
14902;BME280;7542;49.078;9.194;2022-10-22T01:02:49;98351.38;;;19.77;57.15
14902;BME280;7542;49.078;9.194;2022-10-22T01:03:53;98351.00;;;19.73;57.12
14902;BME280;7542;49.078;9.194;2022-10-22T01:04:55;98344.31;;;19.71;57.07
14902;BME280;7542;49.078;9.194;2022-10-22T01:06:00;98343.50;;;19.70;57.10
14902;BME280;7542;49.078;9.194;2022-10-22T01:07:03;98341.09;;;19.68;57.02
14902;BME280;7542;49.078;9.194;2022-10-22T01:08:12;98341.09;;;19.68;57.20
14902;BME280;7542;49.078;9.194;2022-10-22T01:11:14;98338.66;;;19.67;57.08
14902;BME280;7542;49.078;9.194;2022-10-22T01:15:23;98339.59;;;19.61;56.85
14902;BME280;7542;49.078;9.194;2022-10-22T01:18:13;98341.09;;;19.57;57.53
14902;BME280;7542;49.078;9.194;2022-10-22T01:19:45;98350.13;;;19.56;57.34
14902;BME280;7542;49.078;9.194;2022-10-22T01:21:17;98349.31;;;19.55;57.19
14902;BME280;7542;49.078;9.194;2022-10-22T01:28:09;98356.34;;;19.50;57.34
14902;BME280;7542;49.078;9.194;2022-10-22T01:29:21;98357.63;;;19.47;57.64
14902;BME280;7542;49.078;9.194;2022-10-22T01:30:25;98358.91;;;19.45;57.89
14902;BME280;7542;49.078;9.194;2022-10-22T01:31:33;98349.88;;;19.46;57.75
14902;BME280;7542;49.078;9.194;2022-10-22T01:32:50;98351.50;;;19.47;57.79
14902;BME280;7542;49.078;9.194;2022-10-22T01:33:53;98355.19;;;19.46;57.90
14902;BME280;7542;49.078;9.194;2022-10-22T01:35:01;98360.50;;;19.46;57.97
14902;BME280;7542;49.078;9.194;2022-10-22T01:36:05;98365.03;;;19.45;58.08
14902;BME280;7542;49.078;9.194;2022-10-22T01:37:10;98367.44;;;19.47;58.30
14902;BME280;7542;49.078;9.194;2022-10-22T01:38:20;98375.41;;;19.47;57.71
14902;BME280;7542;49.078;9.194;2022-10-22T01:39:26;98383.41;;;19.47;58.41
14902;BME280;7542;49.078;9.194;2022-10-22T01:40:31;98379.94;;;19.46;58.29
14902;BME280;7542;49.078;9.194;2022-10-22T01:41:34;98378.88;;;19.47;58.37
14902;BME280;7542;49.078;9.194;2022-10-22T01:42:36;98376.47;;;19.46;58.17
14902;BME280;7542;49.078;9.194;2022-10-22T01:43:38;98371.16;;;19.46;58.16
14902;BME280;7542;49.078;9.194;2022-10-22T01:44:40;98374.38;;;19.48;57.86
14902;BME280;7542;49.078;9.194;2022-10-22T01:45:53;98370.66;;;19.49;58.43
14902;BME280;7542;49.078;9.194;2022-10-22T01:51:39;98365.81;;;19.46;57.99
14902;BME280;7542;49.078;9.194;2022-10-22T01:54:51;98383.41;;;19.47;57.80
14902;BME280;7542;49.078;9.194;2022-10-22T01:59:24;98385.94;;;19.41;57.94
14902;BME280;7542;49.078;9.194;2022-10-22T02:00:36;98398.41;;;19.41;58.46
14902;BME280;7542;49.078;9.194;2022-10-22T02:03:25;98407.81;;;19.44;58.01
14902;BME280;7542;49.078;9.194;2022-10-22T02:04:47;98415.97;;;19.42;58.09
14902;BME280;7542;49.078;9.194;2022-10-22T02:06:01;98418.63;;;19.42;58.22
14902;BME280;7542;49.078;9.194;2022-10-22T02:07:09;98425.81;;;19.41;58.40
14902;BME280;7542;49.078;9.194;2022-10-22T02:08:19;98423.16;;;19.41;58.88
14902;BME280;7542;49.078;9.194;2022-10-22T02:09:26;98415.97;;;19.42;58.18
14902;BME280;7542;49.078;9.194;2022-10-22T02:10:30;98419.69;;;19.41;58.42
14902;BME280;7542;49.078;9.194;2022-10-22T02:11:33;98424.75;;;19.42;58.26
14902;BME280;7542;49.078;9.194;2022-10-22T02:12:37;98417.84;;;19.41;58.70
14902;BME280;7542;49.078;9.194;2022-10-22T02:13:46;98427.41;;;19.42;58.87
14902;BME280;7542;49.078;9.194;2022-10-22T02:14:50;98431.72;;;19.44;58.53
14902;BME280;7542;49.078;9.194;2022-10-22T02:15:55;98428.47;;;19.41;58.73
14902;BME280;7542;49.078;9.194;2022-10-22T02:17:00;98422.09;;;19.42;58.39
14902;BME280;7542;49.078;9.194;2022-10-22T02:18:03;98419.44;;;19.42;58.55
14902;BME280;7542;49.078;9.194;2022-10-22T02:20:40;98417.63;;;19.43;58.55
14902;BME280;7542;49.078;9.194;2022-10-22T02:21:43;98413.31;;;19.42;58.73
14902;BME280;7542;49.078;9.194;2022-10-22T02:22:46;98417.03;;;19.41;58.42
14902;BME280;7542;49.078;9.194;2022-10-22T02:23:48;98412.75;;;19.40;58.32
14902;BME280;7542;49.078;9.194;2022-10-22T02:24:50;98416.22;;;19.40;58.51
14902;BME280;7542;49.078;9.194;2022-10-22T02:26:05;98410.66;;;19.42;58.82
14902;BME280;7542;49.078;9.194;2022-10-22T02:27:32;98410.66;;;19.42;58.83
14902;BME280;7542;49.078;9.194;2022-10-22T02:28:55;98409.66;;;19.43;58.52
14902;BME280;7542;49.078;9.194;2022-10-22T02:30:08;98398.66;;;19.39;58.98
14902;BME280;7542;49.078;9.194;2022-10-22T02:31:18;98406.63;;;19.39;59.19
14902;BME280;7542;49.078;9.194;2022-10-22T02:32:29;98406.63;;;19.39;58.76
14902;BME280;7542;49.078;9.194;2022-10-22T02:33:40;98407.66;;;19.38;59.11
14902;BME280;7542;49.078;9.194;2022-10-22T02:34:46;98410.56;;;19.37;59.21
14902;BME280;7542;49.078;9.194;2022-10-22T02:35:51;98411.38;;;19.37;58.98
14902;BME280;7542;49.078;9.194;2022-10-22T02:36:54;98408.72;;;19.37;58.85
14902;BME280;7542;49.078;9.194;2022-10-22T02:37:58;98406.84;;;19.38;59.22
14902;BME280;7542;49.078;9.194;2022-10-22T02:39:01;98400.72;;;19.37;58.70
14902;BME280;7542;49.078;9.194;2022-10-22T02:40:03;98397.03;;;19.38;58.72
14902;BME280;7542;49.078;9.194;2022-10-22T02:41:06;98390.66;;;19.39;58.78
14902;BME280;7542;49.078;9.194;2022-10-22T02:42:09;98396.00;;;19.39;58.95
14902;BME280;7542;49.078;9.194;2022-10-22T02:43:12;98384.31;;;19.40;58.79
14902;BME280;7542;49.078;9.194;2022-10-22T02:44:14;98378.19;;;19.40;59.03
14902;BME280;7542;49.078;9.194;2022-10-22T02:45:18;98377.94;;;19.41;58.66
14902;BME280;7542;49.078;9.194;2022-10-22T02:46:22;98375.28;;;19.41;58.91
14902;BME280;7542;49.078;9.194;2022-10-22T02:47:24;98371.00;;;19.40;58.71
14902;BME280;7542;49.078;9.194;2022-10-22T02:48:25;98377.38;;;19.39;58.87
14902;BME280;7542;49.078;9.194;2022-10-22T02:49:27;98379.00;;;19.40;58.86
14902;BME280;7542;49.078;9.194;2022-10-22T02:50:29;98377.38;;;19.39;59.21
14902;BME280;7542;49.078;9.194;2022-10-22T02:51:31;98374.47;;;19.41;58.71
14902;BME280;7542;49.078;9.194;2022-10-22T02:52:33;98370.22;;;19.40;58.49
14902;BME280;7542;49.078;9.194;2022-10-22T02:53:35;98361.44;;;19.39;58.85
14902;BME280;7542;49.078;9.194;2022-10-22T02:54:36;98365.94;;;19.39;58.97
14902;BME280;7542;49.078;9.194;2022-10-22T02:55:38;98365.13;;;19.38;58.93
14902;BME280;7542;49.078;9.194;2022-10-22T02:56:40;98370.09;;;19.35;59.01
14902;BME280;7542;49.078;9.194;2022-10-22T02:57:41;98359.09;;;19.31;58.73
14902;BME280;7542;49.078;9.194;2022-10-22T02:58:44;98351.38;;;19.30;58.91
14902;BME280;7542;49.078;9.194;2022-10-22T02:59:45;98356.09;;;19.28;58.73
14902;BME280;7542;49.078;9.194;2022-10-22T03:00:48;98347.78;;;19.24;58.84
14902;BME280;7542;49.078;9.194;2022-10-22T03:01:50;98349.66;;;19.24;59.18
14902;BME280;7542;49.078;9.194;2022-10-22T03:02:51;98351.50;;;19.23;58.78
14902;BME280;7542;49.078;9.194;2022-10-22T03:03:53;98354.41;;;19.22;59.14
14902;BME280;7542;49.078;9.194;2022-10-22T03:04:55;98354.59;;;19.20;59.22
14902;BME280;7542;49.078;9.194;2022-10-22T03:05:57;98366.28;;;19.19;59.05
14902;BME280;7542;49.078;9.194;2022-10-22T03:06:58;98364.09;;;19.16;58.92
14902;BME280;7542;49.078;9.194;2022-10-22T03:08:00;98363.50;;;19.14;59.25
14902;BME280;7542;49.078;9.194;2022-10-22T03:09:02;98354.97;;;19.12;59.13
14902;BME280;7542;49.078;9.194;2022-10-22T03:10:05;98366.63;;;19.11;59.20
14902;BME280;7542;49.078;9.194;2022-10-22T03:11:07;98362.34;;;19.10;59.35
14902;BME280;7542;49.078;9.194;2022-10-22T03:12:08;98377.69;;;19.08;59.07
14902;BME280;7542;49.078;9.194;2022-10-22T03:13:10;98372.38;;;19.08;59.05
14902;BME280;7542;49.078;9.194;2022-10-22T03:14:12;98374.25;;;19.07;59.32
14902;BME280;7542;49.078;9.194;2022-10-22T03:15:14;98371.81;;;19.06;59.02
14902;BME280;7542;49.078;9.194;2022-10-22T03:16:16;98376.91;;;19.07;58.96
14902;BME280;7542;49.078;9.194;2022-10-22T03:17:17;98378.75;;;19.07;59.32
14902;BME280;7542;49.078;9.194;2022-10-22T03:18:19;98369.97;;;19.06;59.24
14902;BME280;7542;49.078;9.194;2022-10-22T03:19:21;98370.44;;;19.03;59.42
14902;BME280;7542;49.078;9.194;2022-10-22T03:20:23;98366.38;;;19.01;59.41
14902;BME280;7542;49.078;9.194;2022-10-22T03:22:47;98379.31;;;18.97;59.43
14902;BME280;7542;49.078;9.194;2022-10-22T03:23:48;98377.13;;;18.94;59.26
14902;BME280;7542;49.078;9.194;2022-10-22T03:24:57;98376.31;;;18.94;59.21
14902;BME280;7542;49.078;9.194;2022-10-22T03:26:01;98364.28;;;18.91;59.46
14902;BME280;7542;49.078;9.194;2022-10-22T03:27:03;98365.56;;;18.89;59.14
14902;BME280;7542;49.078;9.194;2022-10-22T03:28:07;98359.22;;;18.90;59.29
14902;BME280;7542;49.078;9.194;2022-10-22T03:29:14;98363.91;;;18.88;59.48
14902;BME280;7542;49.078;9.194;2022-10-22T03:30:16;98372.13;;;18.86;59.58
14902;BME280;7542;49.078;9.194;2022-10-22T03:31:18;98375.59;;;18.87;59.60
14902;BME280;7542;49.078;9.194;2022-10-22T03:32:19;98374.78;;;18.86;59.55
14902;BME280;7542;49.078;9.194;2022-10-22T03:33:21;98376.19;;;18.89;59.36
14902;BME280;7542;49.078;9.194;2022-10-22T03:34:23;98374.53;;;18.88;59.58
14902;BME280;7542;49.078;9.194;2022-10-22T03:35:25;98365.56;;;18.89;59.87
14902;BME280;7542;49.078;9.194;2022-10-22T03:36:27;98360.25;;;18.89;59.57
14902;BME280;7542;49.078;9.194;2022-10-22T03:37:29;98362.91;;;18.89;59.93
14902;BME280;7542;49.078;9.194;2022-10-22T03:38:34;98359.41;;;18.88;59.58
14902;BME280;7542;49.078;9.194;2022-10-22T03:39:36;98357.59;;;18.89;59.87
14902;BME280;7542;49.078;9.194;2022-10-22T03:40:40;98354.94;;;18.89;59.72
14902;BME280;7542;49.078;9.194;2022-10-22T03:41:43;98355.94;;;18.88;59.81
14902;BME280;7542;49.078;9.194;2022-10-22T03:42:45;98339.19;;;18.87;59.99
14902;BME280;7542;49.078;9.194;2022-10-22T03:43:47;98332.03;;;18.88;59.83
14902;BME280;7542;49.078;9.194;2022-10-22T03:44:53;98333.09;;;18.87;59.92
14902;BME280;7542;49.078;9.194;2022-10-22T03:45:55;98334.94;;;18.86;59.86
14902;BME280;7542;49.078;9.194;2022-10-22T03:46:57;98326.72;;;18.88;59.82
14902;BME280;7542;49.078;9.194;2022-10-22T03:48:03;98321.66;;;18.86;60.02
14902;BME280;7542;49.078;9.194;2022-10-22T03:49:05;98313.69;;;18.86;59.78
14902;BME280;7542;49.078;9.194;2022-10-22T03:50:08;98312.88;;;18.86;60.37
14902;BME280;7542;49.078;9.194;2022-10-22T03:51:10;98306.75;;;18.85;59.77
14902;BME280;7542;49.078;9.194;2022-10-22T03:52:14;98312.88;;;18.86;59.82
14902;BME280;7542;49.078;9.194;2022-10-22T03:53:15;98303.75;;;18.81;60.06
14902;BME280;7542;49.078;9.194;2022-10-22T03:54:17;98307.44;;;18.80;59.78
14902;BME280;7542;49.078;9.194;2022-10-22T03:55:19;98315.66;;;18.79;60.20
14902;BME280;7542;49.078;9.194;2022-10-22T03:56:21;98308.94;;;18.76;60.53
14902;BME280;7542;49.078;9.194;2022-10-22T03:57:23;98322.44;;;18.75;60.11
14902;BME280;7542;49.078;9.194;2022-10-22T03:58:26;98329.84;;;18.73;60.27
14902;BME280;7542;49.078;9.194;2022-10-22T03:59:27;98336.19;;;18.72;60.29
14902;BME280;7542;49.078;9.194;2022-10-22T04:00:29;98339.88;;;18.71;60.14
14902;BME280;7542;49.078;9.194;2022-10-22T04:01:31;98336.19;;;18.72;60.07
14902;BME280;7542;49.078;9.194;2022-10-22T04:02:33;98345.78;;;18.73;60.32
14902;BME280;7542;49.078;9.194;2022-10-22T04:03:35;98349.47;;;18.72;60.42
14902;BME280;7542;49.078;9.194;2022-10-22T04:04:37;98355.59;;;18.72;59.85
14902;BME280;7542;49.078;9.194;2022-10-22T04:05:39;98361.47;;;18.74;60.25
14902;BME280;7542;49.078;9.194;2022-10-22T04:06:41;98380.06;;;18.74;60.20
14902;BME280;7542;49.078;9.194;2022-10-22T04:07:43;98380.06;;;18.74;60.25
14902;BME280;7542;49.078;9.194;2022-10-22T04:08:45;98383.28;;;18.76;60.47
14902;BME280;7542;49.078;9.194;2022-10-22T04:09:47;98390.47;;;18.76;60.61
14902;BME280;7542;49.078;9.194;2022-10-22T04:10:51;98391.06;;;18.78;60.20
14902;BME280;7542;49.078;9.194;2022-10-22T04:11:53;98394.72;;;18.77;60.29
14902;BME280;7542;49.078;9.194;2022-10-22T04:12:56;98393.72;;;18.78;60.43
14902;BME280;7542;49.078;9.194;2022-10-22T04:13:57;98381.25;;;18.78;60.38
14902;BME280;7542;49.078;9.194;2022-10-22T04:14:59;98374.91;;;18.79;60.16
14902;BME280;7542;49.078;9.194;2022-10-22T04:16:14;98378.94;;;18.82;60.14
14902;BME280;7542;49.078;9.194;2022-10-22T04:17:16;98388.19;;;18.79;60.23
14902;BME280;7542;49.078;9.194;2022-10-22T04:18:22;98395.91;;;18.81;60.11
14902;BME280;7542;49.078;9.194;2022-10-22T04:19:24;98398.81;;;18.79;60.32
14902;BME280;7542;49.078;9.194;2022-10-22T04:20:26;98403.06;;;18.80;60.08
14902;BME280;7542;49.078;9.194;2022-10-22T04:21:27;98402.84;;;18.82;60.02
14902;BME280;7542;49.078;9.194;2022-10-22T04:22:32;98390.38;;;18.82;59.81
14902;BME280;7542;49.078;9.194;2022-10-22T04:23:34;98399.97;;;18.83;60.17
14902;BME280;7542;49.078;9.194;2022-10-22T04:24:36;98390.13;;;18.84;60.13
14902;BME280;7542;49.078;9.194;2022-10-22T04:25:39;98390.94;;;18.85;59.84
14902;BME280;7542;49.078;9.194;2022-10-22T04:26:41;98390.94;;;18.85;60.15
14902;BME280;7542;49.078;9.194;2022-10-22T04:27:43;98384.81;;;18.84;60.18
14902;BME280;7542;49.078;9.194;2022-10-22T04:28:46;98388.06;;;18.86;60.21
14902;BME280;7542;49.078;9.194;2022-10-22T04:29:49;98390.72;;;18.86;60.03
14902;BME280;7542;49.078;9.194;2022-10-22T04:30:50;98389.91;;;18.86;59.90
14902;BME280;7542;49.078;9.194;2022-10-22T04:31:52;98390.72;;;18.86;60.17
14902;BME280;7542;49.078;9.194;2022-10-22T04:32:54;98395.78;;;18.88;60.06
14902;BME280;7542;49.078;9.194;2022-10-22T04:33:59;98392.34;;;18.87;60.11
14902;BME280;7542;49.078;9.194;2022-10-22T04:35:01;98395.22;;;18.86;60.05
14902;BME280;7542;49.078;9.194;2022-10-22T04:36:15;98399.25;;;18.88;59.93
14902;BME280;7542;49.078;9.194;2022-10-22T04:37:18;98401.34;;;18.86;60.14
14902;BME280;7542;49.078;9.194;2022-10-22T04:38:20;98404.22;;;18.85;60.21
14902;BME280;7542;49.078;9.194;2022-10-22T04:39:21;98413.81;;;18.86;60.15
14902;BME280;7542;49.078;9.194;2022-10-22T04:40:23;98400.75;;;18.84;59.67
14902;BME280;7542;49.078;9.194;2022-10-22T04:41:32;98407.47;;;18.87;59.86
14902;BME280;7542;49.078;9.194;2022-10-22T04:42:34;98413.81;;;18.86;59.82
14902;BME280;7542;49.078;9.194;2022-10-22T04:43:36;98408.50;;;18.86;59.77
14902;BME280;7542;49.078;9.194;2022-10-22T04:44:38;98412.19;;;18.85;59.97
14902;BME280;7542;49.078;9.194;2022-10-22T04:45:40;98406.66;;;18.86;59.73
14902;BME280;7542;49.078;9.194;2022-10-22T04:46:42;98414.63;;;18.86;60.01
14902;BME280;7542;49.078;9.194;2022-10-22T04:47:44;98412.19;;;18.85;59.84
14902;BME280;7542;49.078;9.194;2022-10-22T04:48:46;98422.81;;;18.85;59.86
14902;BME280;7542;49.078;9.194;2022-10-22T04:49:48;98418.31;;;18.85;59.76
14902;BME280;7542;49.078;9.194;2022-10-22T04:50:49;98418.09;;;18.87;59.40
14902;BME280;7542;49.078;9.194;2022-10-22T04:51:51;98412.19;;;18.85;59.96
14902;BME280;7542;49.078;9.194;2022-10-22T04:52:53;98414.28;;;18.82;59.82
14902;BME280;7542;49.078;9.194;2022-10-22T04:53:55;98415.91;;;18.83;59.76
14902;BME280;7542;49.078;9.194;2022-10-22T04:54:56;98416.13;;;18.82;59.91
14902;BME280;7542;49.078;9.194;2022-10-22T04:56:11;98422.00;;;18.84;59.71
14902;BME280;7542;49.078;9.194;2022-10-22T04:57:13;98427.78;;;18.81;59.91
14902;BME280;7542;49.078;9.194;2022-10-22T04:58:15;98426.41;;;18.78;60.04
14902;BME280;7542;49.078;9.194;2022-10-22T04:59:17;98433.56;;;18.78;59.77
14902;BME280;7542;49.078;9.194;2022-10-22T05:00:19;98426.16;;;18.80;59.89
14902;BME280;7542;49.078;9.194;2022-10-22T05:01:31;98427.78;;;18.81;59.94
14902;BME280;7542;49.078;9.194;2022-10-22T05:02:35;98437.59;;;18.80;59.96
14902;BME280;7542;49.078;9.194;2022-10-22T05:03:37;98440.25;;;18.80;59.87
14902;BME280;7542;49.078;9.194;2022-10-22T05:04:38;98438.41;;;18.81;59.63
14902;BME280;7542;49.078;9.194;2022-10-22T05:05:40;98440.84;;;18.82;59.89
14902;BME280;7542;49.078;9.194;2022-10-22T05:06:43;98447.78;;;18.83;59.41
14902;BME280;7542;49.078;9.194;2022-10-22T05:07:45;98443.50;;;18.82;59.44
14902;BME280;7542;49.078;9.194;2022-10-22T05:08:51;98453.66;;;18.86;59.80
14902;BME280;7542;49.078;9.194;2022-10-22T05:09:53;98452.28;;;18.83;59.69
14902;BME280;7542;49.078;9.194;2022-10-22T05:10:55;98446.72;;;18.85;59.72
14902;BME280;7542;49.078;9.194;2022-10-22T05:11:57;98446.72;;;18.85;59.48
14902;BME280;7542;49.078;9.194;2022-10-22T05:12:58;98451.00;;;18.86;59.51
14902;BME280;7542;49.078;9.194;2022-10-22T05:14:04;98452.63;;;18.87;59.35
14902;BME280;7542;49.078;9.194;2022-10-22T05:15:07;98446.72;;;18.85;59.58
14902;BME280;7542;49.078;9.194;2022-10-22T05:16:10;98444.06;;;18.85;59.39
14902;BME280;7542;49.078;9.194;2022-10-22T05:17:12;98451.47;;;18.82;59.23
14902;BME280;7542;49.078;9.194;2022-10-22T05:18:14;98449.84;;;18.81;59.94
14902;BME280;7542;49.078;9.194;2022-10-22T05:19:27;98451.13;;;18.79;59.72
14902;BME280;7542;49.078;9.194;2022-10-22T05:20:29;98456.63;;;18.77;59.40
14902;BME280;7542;49.078;9.194;2022-10-22T05:21:32;98453.41;;;18.75;59.66
14902;BME280;7542;49.078;9.194;2022-10-22T05:22:34;98464.00;;;18.75;59.66
14902;BME280;7542;49.078;9.194;2022-10-22T05:23:35;98468.28;;;18.76;59.64
14902;BME280;7542;49.078;9.194;2022-10-22T05:24:37;98469.34;;;18.75;59.51
14902;BME280;7542;49.078;9.194;2022-10-22T05:25:39;98472.00;;;18.75;59.65
14902;BME280;7542;49.078;9.194;2022-10-22T05:26:41;98473.03;;;18.74;59.58
14902;BME280;7542;49.078;9.194;2022-10-22T05:27:48;98473.84;;;18.75;59.53
14902;BME280;7542;49.078;9.194;2022-10-22T05:28:51;98472.44;;;18.72;59.66
14902;BME280;7542;49.078;9.194;2022-10-22T05:29:52;98479.59;;;18.72;59.68
14902;BME280;7542;49.078;9.194;2022-10-22T05:30:57;98473.72;;;18.70;59.72
14902;BME280;7542;49.078;9.194;2022-10-22T05:31:59;98471.06;;;18.70;59.85
14902;BME280;7542;49.078;9.194;2022-10-22T05:33:01;98474.53;;;18.70;59.60
14902;BME280;7542;49.078;9.194;2022-10-22T05:34:02;98479.25;;;18.68;59.68
14902;BME280;7542;49.078;9.194;2022-10-22T05:35:04;98481.69;;;18.70;59.94
14902;BME280;7542;49.078;9.194;2022-10-22T05:36:09;98480.06;;;18.69;59.85
14902;BME280;7542;49.078;9.194;2022-10-22T05:37:12;98485.38;;;18.69;59.72
14902;BME280;7542;49.078;9.194;2022-10-22T05:38:15;98483.75;;;18.68;59.57
14902;BME280;7542;49.078;9.194;2022-10-22T05:39:17;98487.22;;;18.68;59.83
14902;BME280;7542;49.078;9.194;2022-10-22T05:40:19;98491.72;;;18.68;59.91
14902;BME280;7542;49.078;9.194;2022-10-22T05:41:33;98486.41;;;18.68;59.73
14902;BME280;7542;49.078;9.194;2022-10-22T05:42:36;98489.06;;;18.68;59.77
14902;BME280;7542;49.078;9.194;2022-10-22T05:43:38;98495.19;;;18.68;59.75
14902;BME280;7542;49.078;9.194;2022-10-22T05:44:40;98498.88;;;18.67;59.81
14902;BME280;7542;49.078;9.194;2022-10-22T05:45:42;98495.63;;;18.65;59.97
14902;BME280;7542;49.078;9.194;2022-10-22T05:46:44;98492.97;;;18.65;59.97
14902;BME280;7542;49.078;9.194;2022-10-22T05:47:46;98497.47;;;18.65;59.72
14902;BME280;7542;49.078;9.194;2022-10-22T05:48:56;98494.00;;;18.64;59.77
14902;BME280;7542;49.078;9.194;2022-10-22T05:49:59;98501.34;;;18.62;60.06
14902;BME280;7542;49.078;9.194;2022-10-22T05:51:08;98510.13;;;18.63;59.83
14902;BME280;7542;49.078;9.194;2022-10-22T05:52:10;98499.72;;;18.61;59.87
14902;BME280;7542;49.078;9.194;2022-10-22T05:53:12;98509.53;;;18.61;59.90
14902;BME280;7542;49.078;9.194;2022-10-22T05:54:19;98511.97;;;18.62;59.88
14902;BME280;7542;49.078;9.194;2022-10-22T05:55:22;98514.03;;;18.60;59.77
14902;BME280;7542;49.078;9.194;2022-10-22T05:56:26;98507.09;;;18.59;60.01
14902;BME280;7542;49.078;9.194;2022-10-22T05:57:28;98513.22;;;18.60;59.94
14902;BME280;7542;49.078;9.194;2022-10-22T05:58:30;98513.22;;;18.60;59.88
14902;BME280;7542;49.078;9.194;2022-10-22T05:59:32;98516.69;;;18.60;59.93
14902;BME280;7542;49.078;9.194;2022-10-22T06:00:33;98518.53;;;18.60;59.80
14902;BME280;7542;49.078;9.194;2022-10-22T06:01:35;98518.31;;;18.61;59.97
14902;BME280;7542;49.078;9.194;2022-10-22T06:02:37;98519.94;;;18.62;59.74
14902;BME280;7542;49.078;9.194;2022-10-22T06:03:40;98521.78;;;18.62;60.10
14902;BME280;7542;49.078;9.194;2022-10-22T06:04:42;98520.75;;;18.63;59.80
14902;BME280;7542;49.078;9.194;2022-10-22T06:05:44;98523.63;;;18.61;59.87
14902;BME280;7542;49.078;9.194;2022-10-22T06:06:51;98518.91;;;18.63;60.00
14902;BME280;7542;49.078;9.194;2022-10-22T06:07:55;98523.41;;;18.63;60.00
14902;BME280;7542;49.078;9.194;2022-10-22T06:09:06;98524.44;;;18.62;60.11
14902;BME280;7542;49.078;9.194;2022-10-22T06:10:14;98513.22;;;18.60;59.97
14902;BME280;7542;49.078;9.194;2022-10-22T06:11:20;98523.28;;;18.58;60.03